Time;durP1;ratioP1;P1;durP2;ratioP2;P2;SDS_P1;SDS_P2;PMS_P1;PMS_P2;Temp;Humidity;BMP_temperature;BMP_pressure;BME280_temperature;BME280_humidity;BME280_pressure;Samples;Min_cycle;Max_cycle;Signal;HPM_P1;HPM_P2
2023/09/16 00:02:10;;;;;;;6.73;3.40;;;20.40;99.90;;;;;;5092683;28;20816;-87
2023/09/16 00:04:43;;;;;;;6.43;4.50;;;20.40;99.90;;;;;;5092418;28;20497;-83
2023/09/16 00:07:17;;;;;;;4.50;3.70;;;20.20;99.90;;;;;;5094861;28;20470;-83
2023/09/16 00:09:46;;;;;;;4.13;3.33;;;20.00;99.90;;;;;;5091504;28;20473;-86
2023/09/16 00:12:13;;;;;;;3.97;3.33;;;19.90;99.90;;;;;;5081066;28;20464;-83
2023/09/16 00:14:43;;;;;;;6.87;5.17;;;19.70;99.90;;;;;;5064818;28;20468;-84
2023/09/16 00:17:11;;;;;;;6.00;3.53;;;19.60;99.90;;;;;;5073437;28;20477;-88
2023/09/16 00:19:38;;;;;;;5.67;4.10;;;19.50;99.90;;;;;;5086192;28;20470;-85
2023/09/16 00:22:10;;;;;;;9.07;8.03;;;19.30;99.90;;;;;;5090748;28;20461;-84
2023/09/16 00:25:01;;;;;;;7.10;3.43;;;19.30;99.90;;;;;;5092737;28;20681;-87
2023/09/16 00:27:30;;;;;;;5.93;3.73;;;19.20;99.90;;;;;;5065230;28;20543;-87
2023/09/16 00:30:01;;;;;;;3.80;3.50;;;19.00;99.90;;;;;;5088571;28;20481;-84
2023/09/16 00:32:28;;;;;;;5.40;4.00;;;19.00;99.90;;;;;;5096705;28;20476;-84
2023/09/16 00:34:55;;;;;;;4.83;3.83;;;18.90;99.90;;;;;;5097674;22;20465;-83
2023/09/16 00:37:24;;;;;;;5.10;3.73;;;18.90;99.90;;;;;;5098435;28;20484;-84
2023/09/16 00:39:51;;;;;;;8.23;6.07;;;18.80;99.90;;;;;;5097645;28;20475;-85
2023/09/16 00:42:18;;;;;;;4.17;3.37;;;18.70;99.90;;;;;;5083268;28;20477;-85
2023/09/16 00:44:46;;;;;;;6.03;3.63;;;18.60;99.90;;;;;;5081926;28;20494;-84
2023/09/16 00:47:19;;;;;;;5.03;3.73;;;18.60;99.90;;;;;;5069518;28;20867;-86
2023/09/16 00:49:46;;;;;;;8.87;3.63;;;18.50;99.90;;;;;;5070907;28;20535;-85
2023/09/16 00:52:16;;;;;;;4.70;4.20;;;18.50;99.90;;;;;;5080123;28;20474;-86
2023/09/16 00:54:50;;;;;;;4.80;4.30;;;18.50;99.90;;;;;;5070320;28;20454;-85
2023/09/16 00:57:18;;;;;;;6.63;4.53;;;18.50;99.90;;;;;;5058048;28;20475;-83
2023/09/16 00:59:46;;;;;;;6.37;3.77;;;18.40;99.90;;;;;;5058019;28;20463;-87
2023/09/16 01:02:16;;;;;;;6.77;5.37;;;18.40;99.90;;;;;;5056939;28;20479;-83
2023/09/16 01:04:55;;;;;;;6.23;3.73;;;18.40;99.90;;;;;;5056697;28;20459;-86
2023/09/16 01:07:22;;;;;;;6.90;5.10;;;18.30;99.90;;;;;;5039297;28;20474;-87
2023/09/16 01:09:50;;;;;;;4.63;3.80;;;18.30;99.90;;;;;;5057059;28;20473;-84
2023/09/16 01:12:17;;;;;;;5.33;4.50;;;18.20;99.90;;;;;;5055573;28;20499;-84
2023/09/16 01:14:47;;;;;;;6.20;4.30;;;18.20;99.90;;;;;;5056123;28;20473;-83
2023/09/16 01:17:24;;;;;;;3.63;3.33;;;18.20;99.90;;;;;;5055214;28;20558;-83
2023/09/16 01:19:59;;;;;;;4.50;4.10;;;18.20;99.90;;;;;;5057208;28;20549;-84
2023/09/16 01:22:27;;;;;;;5.30;4.53;;;18.20;99.90;;;;;;5056570;28;20451;-88
2023/09/16 01:24:55;;;;;;;3.90;3.40;;;18.20;99.90;;;;;;5060122;28;20521;-88
2023/09/16 01:27:23;;;;;;;8.17;5.60;;;18.20;99.90;;;;;;5059591;28;20464;-88
2023/09/16 01:29:51;;;;;;;4.53;4.07;;;18.20;99.90;;;;;;5057101;28;20471;-85
2023/09/16 01:32:26;;;;;;;5.50;3.40;;;18.20;99.90;;;;;;5054888;28;20789;-85
2023/09/16 01:34:57;;;;;;;4.07;3.50;;;18.20;99.90;;;;;;5021714;28;20472;-84
2023/09/16 01:37:26;;;;;;;4.03;3.63;;;18.20;99.90;;;;;;5021543;28;20468;-84
2023/09/16 01:39:58;;;;;;;4.63;3.80;;;18.20;99.90;;;;;;5034278;28;20495;-83
2023/09/16 01:42:33;;;;;;;4.03;3.63;;;18.20;99.90;;;;;;5052892;28;20521;-88
2023/09/16 01:45:02;;;;;;;4.47;3.40;;;18.20;99.90;;;;;;5055470;28;20491;-87
2023/09/16 01:47:30;;;;;;;3.90;3.50;;;18.10;99.90;;;;;;5055185;28;20551;-86
2023/09/16 01:49:58;;;;;;;7.07;4.60;;;18.20;99.90;;;;;;5057021;28;20883;-84
2023/09/16 01:52:25;;;;;;;4.63;4.23;;;18.10;99.90;;;;;;5054341;28;20471;-84
2023/09/16 01:54:52;;;;;;;6.30;3.70;;;18.10;99.90;;;;;;5047479;28;20468;-84
2023/09/16 01:57:20;;;;;;;5.70;4.37;;;18.10;99.90;;;;;;5034894;28;20530;-88
2023/09/16 01:59:48;;;;;;;8.10;5.93;;;18.00;99.90;;;;;;5018312;28;20548;-87
2023/09/16 02:02:15;;;;;;;8.00;6.87;;;18.00;99.90;;;;;;5037744;28;20966;-86
2023/09/16 02:04:45;;;;;;;7.60;4.23;;;18.00;99.90;;;;;;5036082;28;20468;-88
2023/09/16 02:07:14;;;;;;;5.90;4.37;;;18.00;99.90;;;;;;5038282;28;20510;-88
2023/09/16 02:09:42;;;;;;;7.67;5.73;;;18.00;99.90;;;;;;5035626;28;20475;-87
2023/09/16 02:12:09;;;;;;;6.97;5.40;;;17.90;99.90;;;;;;5056184;28;20471;-84
2023/09/16 02:14:39;;;;;;;9.17;4.67;;;18.00;99.90;;;;;;5057149;28;20495;-85
2023/09/16 02:17:09;;;;;;;7.80;5.97;;;18.00;99.90;;;;;;5054377;28;20829;-84
2023/09/16 02:19:36;;;;;;;5.87;4.80;;;17.90;99.90;;;;;;5055417;28;20468;-85
2023/09/16 02:22:04;;;;;;;7.20;5.90;;;17.90;99.90;;;;;;5054002;28;20471;-88
2023/09/16 02:24:34;;;;;;;3.93;3.53;;;17.80;99.90;;;;;;5056216;28;20834;-88
2023/09/16 02:27:04;;;;;;;7.90;4.23;;;17.80;99.90;;;;;;5045812;28;20519;-85
2023/09/16 02:29:38;;;;;;;5.57;4.70;;;17.80;99.90;;;;;;5053919;28;20568;-84
2023/09/16 02:32:08;;;;;;;6.83;5.20;;;17.80;99.90;;;;;;5054119;28;20451;-83
2023/09/16 02:34:38;;;;;;;6.23;4.73;;;17.80;99.90;;;;;;5053403;28;20459;-83
2023/09/16 02:37:05;;;;;;;4.67;3.67;;;17.80;99.90;;;;;;5053763;28;20479;-87
2023/09/16 02:39:32;;;;;;;6.57;4.33;;;17.80;99.90;;;;;;5054211;28;20470;-87
2023/09/16 02:41:59;;;;;;;5.07;4.57;;;17.70;99.90;;;;;;5056613;28;20809;-83
2023/09/16 02:44:26;;;;;;;9.53;6.30;;;17.70;99.90;;;;;;5055108;28;20482;-87
2023/09/16 02:46:55;;;;;;;4.67;4.00;;;17.70;99.90;;;;;;5051515;28;20470;-84
2023/09/16 02:49:24;;;;;;;5.50;4.67;;;17.70;99.90;;;;;;5057094;28;20482;-87
2023/09/16 02:51:52;;;;;;;6.40;4.80;;;17.70;99.90;;;;;;5055659;28;20478;-88
2023/09/16 02:54:29;;;;;;;8.73;5.50;;;17.70;99.90;;;;;;5055164;28;20497;-84
2023/09/16 02:57:00;;;;;;;8.83;6.17;;;17.70;99.90;;;;;;5055906;28;20562;-87
2023/09/16 02:59:27;;;;;;;8.53;4.77;;;17.60;99.90;;;;;;5057721;28;20467;-83
2023/09/16 03:01:54;;;;;;;8.30;6.90;;;17.60;99.90;;;;;;5054441;28;20463;-83
2023/09/16 03:04:26;;;;;;;8.40;6.77;;;17.60;99.90;;;;;;5060181;28;20501;-87
2023/09/16 03:06:53;;;;;;;9.83;7.70;;;17.60;99.90;;;;;;5057762;28;20968;-83
2023/09/16 03:09:23;;;;;;;4.80;4.40;;;17.50;99.90;;;;;;5056834;28;20466;-87
2023/09/16 03:12:22;;;;;;;4.90;4.40;;;17.60;99.90;;;;;;5080537;28;20466;-87
2023/09/16 03:14:51;;;;;;;7.60;4.47;;;17.50;99.90;;;;;;5082837;28;20967;-86
2023/09/16 03:20:39;;;;;;;7.20;5.73;;;17.50;99.90;;;;;;5088382;28;20476;-87
2023/09/16 03:23:12;;;;;;;6.17;4.90;;;17.50;99.90;;;;;;5079355;28;20489;-83
2023/09/16 03:25:41;;;;;;;5.90;5.30;;;17.50;99.90;;;;;;5082067;28;21002;-88
2023/09/16 03:28:10;;;;;;;4.90;4.40;;;17.50;99.90;;;;;;5083297;28;20462;-87
2023/09/16 03:30:37;;;;;;;5.90;5.03;;;17.50;99.90;;;;;;5080449;28;20466;-83
2023/09/16 03:35:49;;;;;;;4.87;4.00;;;17.50;99.90;;;;;;5028165;28;20513;-84
2023/09/16 03:38:16;;;;;;;4.07;3.67;;;17.50;99.90;;;;;;5059403;28;20470;-83
2023/09/16 03:40:43;;;;;;;4.40;4.00;;;17.50;99.90;;;;;;5060715;28;20460;-82
2023/09/16 03:43:10;;;;;;;5.67;4.67;;;17.50;99.90;;;;;;5065283;28;20463;-83
2023/09/16 03:45:37;;;;;;;3.97;3.50;;;17.40;99.90;;;;;;5063513;28;20994;-85
2023/09/16 03:48:08;;;;;;;5.50;3.53;;;17.40;99.90;;;;;;5063214;28;20463;-83
2023/09/16 03:50:37;;;;;;;6.90;5.03;;;17.40;99.90;;;;;;5063209;28;20479;-88
2023/09/16 03:53:06;;;;;;;4.10;3.70;;;17.40;99.90;;;;;;5054338;28;20873;-84
2023/09/16 03:55:34;;;;;;;4.20;3.17;;;17.40;99.90;;;;;;5056436;28;20475;-88
2023/09/16 03:58:01;;;;;;;5.80;3.20;;;17.40;99.90;;;;;;5066985;28;20546;-87
2023/09/16 04:00:29;;;;;;;3.13;2.83;;;17.40;99.90;;;;;;5055450;28;20478;-84
2023/09/16 04:02:56;;;;;;;5.70;3.10;;;17.40;99.90;;;;;;5063306;28;20493;-87
2023/09/16 04:05:23;;;;;;;4.40;4.00;;;17.40;99.90;;;;;;5062790;28;20474;-87
2023/09/16 04:07:50;;;;;;;4.73;3.50;;;17.40;99.90;;;;;;5055855;28;20475;-87
2023/09/16 04:10:19;;;;;;;4.30;3.67;;;17.30;99.90;;;;;;5057574;28;20463;-86
2023/09/16 04:12:47;;;;;;;7.27;6.17;;;17.40;99.90;;;;;;5054051;28;20491;-83
2023/09/16 04:15:15;;;;;;;5.03;4.40;;;17.40;99.90;;;;;;5053818;28;20478;-82
2023/09/16 04:17:42;;;;;;;3.67;3.30;;;17.40;99.90;;;;;;5052240;28;20493;-83
2023/09/16 04:20:10;;;;;;;5.67;4.23;;;17.40;99.90;;;;;;5052793;28;21011;-82
2023/09/16 04:22:38;;;;;;;4.63;4.10;;;17.30;99.90;;;;;;5053904;28;20547;-82
2023/09/16 04:25:05;;;;;;;4.90;4.40;;;17.40;99.90;;;;;;5052515;28;20471;-83
2023/09/16 04:27:34;;;;;;;14.67;9.30;;;17.40;99.90;;;;;;5051289;28;20546;-83
2023/09/16 04:30:01;;;;;;;6.53;5.93;;;17.30;99.90;;;;;;5040836;28;20463;-81
2023/09/16 04:32:28;;;;;;;8.07;5.23;;;17.30;99.90;;;;;;5052842;28;20467;-85
2023/09/16 04:35:04;;;;;;;114.10;83.77;;;17.30;99.90;;;;;;5052535;28;20482;-82
2023/09/16 04:37:38;;;;;;;6.10;5.50;;;17.30;99.90;;;;;;5057610;28;20462;-82
2023/09/16 04:40:14;;;;;;;6.10;5.40;;;17.30;99.90;;;;;;5045685;28;20478;-86
2023/09/16 04:42:42;;;;;;;7.00;6.30;;;17.30;99.90;;;;;;5065059;28;20470;-83
2023/09/16 04:45:10;;;;;;;5.47;4.90;;;17.40;99.90;;;;;;5042142;28;20478;-86
2023/09/16 04:47:37;;;;;;;14.10;7.77;;;17.30;99.90;;;;;;5053765;28;20486;-86
2023/09/16 04:50:05;;;;;;;10.03;6.03;;;17.30;99.90;;;;;;5051577;28;20467;-84
2023/09/16 04:52:32;;;;;;;5.13;4.60;;;17.30;99.90;;;;;;5053346;28;20463;-82
2023/09/16 04:55:04;;;;;;;6.97;3.73;;;17.30;99.90;;;;;;5056584;28;20459;-85
2023/09/16 04:57:33;;;;;;;6.50;4.67;;;17.30;99.90;;;;;;5054971;28;20983;-83
2023/09/16 05:00:05;;;;;;;61.13;44.40;;;17.20;99.90;;;;;;5053012;28;20463;-86
2023/09/16 05:02:36;;;;;;;90.20;71.30;;;17.30;99.90;;;;;;5054547;28;20760;-84
2023/09/16 05:05:03;;;;;;;90.53;67.77;;;17.50;99.90;;;;;;5052513;28;20471;-84
2023/09/16 05:07:30;;;;;;;63.77;51.93;;;17.80;99.90;;;;;;5052419;28;20483;-82
2023/09/16 05:10:25;;;;;;;53.47;43.13;;;18.10;99.90;;;;;;5052460;28;20497;-81
2023/09/16 05:12:52;;;;;;;28.10;23.90;;;18.40;99.90;;;;;;5034382;28;20478;-84
2023/09/16 05:15:39;;;;;;;26.67;20.83;;;18.80;99.90;;;;;;5039939;28;20479;-86
2023/09/16 05:18:35;;;;;;;8.53;5.40;;;19.00;99.90;;;;;;5063975;28;20467;-83
2023/09/16 05:21:12;;;;;;;9.60;8.17;;;19.10;99.90;;;;;;5059728;28;20455;-87
2023/09/16 05:23:58;;;;;;;4.40;3.83;;;19.20;99.90;;;;;;5065601;28;20477;-82
2023/09/16 05:26:25;;;;;;;4.93;3.63;;;19.10;99.90;;;;;;5028723;28;20473;-82
2023/09/16 05:28:52;;;;;;;5.63;3.80;;;19.00;99.90;;;;;;5058534;28;20976;-82
2023/09/16 05:31:56;;;;;;;5.17;4.37;;;18.90;99.90;;;;;;5036166;28;20792;-86
2023/09/16 05:37:47;;;;;;;8.80;5.50;;;18.70;99.90;;;;;;5026290;28;20472;-86
2023/09/16 05:46:18;;;;;;;6.47;5.77;;;18.50;99.90;;;;;;5025373;28;20496;-86
2023/09/16 05:49:07;;;;;;;6.13;4.70;;;18.40;99.90;;;;;;5022135;28;20468;-86
2023/09/16 05:57:18;;;;;;;5.60;3.87;;;18.20;99.90;;;;;;5014478;28;20472;-86
2023/09/16 05:59:50;;;;;;;4.83;4.43;;;18.10;99.90;;;;;;5020354;28;20519;-83
2023/09/16 06:02:20;;;;;;;3.97;3.53;;;18.00;99.90;;;;;;5013489;28;20564;-86
2023/09/16 06:04:50;;;;;;;4.30;3.90;;;18.00;99.90;;;;;;5017845;28;20485;-86
2023/09/16 06:10:08;;;;;;;5.07;4.57;;;17.80;99.90;;;;;;5015323;28;20487;-83
2023/09/16 06:12:50;;;;;;;;;;;;;;;;;;;;;
2023/09/16 06:15:32;;;;;;;;;;;;;;;;;;;;;
2023/09/16 06:18:06;;;;;;;5.73;4.27;;;17.60;99.90;;;;;;5009346;28;21213;-86
2023/09/16 06:23:35;;;;;;;8.00;4.00;;;17.60;99.90;;;;;;5009185;28;20453;-85
2023/09/16 06:26:25;;;;;;;5.33;3.83;;;17.60;99.90;;;;;;5010360;28;20823;-86
2023/09/16 06:31:54;;;;;;;4.67;4.23;;;17.60;99.90;;;;;;4988742;28;20481;-82
2023/09/16 06:34:21;;;;;;;7.80;4.57;;;17.60;99.90;;;;;;5015032;28;20591;-82
2023/09/16 06:36:48;;;;;;;4.57;3.70;;;17.60;99.90;;;;;;5033139;28;20832;-83
2023/09/16 06:39:30;;;;;;;6.03;4.10;;;17.60;99.90;;;;;;5036387;28;20464;-82
2023/09/16 06:42:04;;;;;;;7.17;4.43;;;17.70;99.90;;;;;;5027493;28;20476;-84
2023/09/16 06:44:32;;;;;;;9.20;4.80;;;17.70;99.90;;;;;;5041726;28;20500;-82
2023/09/16 06:46:59;;;;;;;7.13;4.53;;;17.70;99.90;;;;;;5035939;28;20483;-85
2023/09/16 06:49:26;;;;;;;7.53;5.40;;;17.70;99.90;;;;;;5041749;28;20464;-82
2023/09/16 06:51:56;;;;;;;6.17;3.90;;;17.70;99.90;;;;;;5026097;28;20483;-84
2023/09/16 06:54:23;;;;;;;5.80;4.80;;;17.80;99.90;;;;;;5044942;28;20475;-85
2023/09/16 06:56:52;;;;;;;8.00;5.20;;;17.80;99.90;;;;;;5042594;28;20476;-85
2023/09/16 06:59:23;;;;;;;6.37;4.50;;;17.80;99.90;;;;;;5034935;28;20480;-82
2023/09/16 07:01:50;;;;;;;6.43;4.83;;;17.80;99.90;;;;;;5037839;28;20534;-82
2023/09/16 07:04:32;;;;;;;5.30;4.10;;;17.90;99.90;;;;;;5039480;28;20490;-83
2023/09/16 07:06:59;;;;;;;8.50;4.23;;;17.90;99.90;;;;;;5036958;28;20487;-86
2023/09/16 07:09:26;;;;;;;6.70;4.70;;;18.00;99.90;;;;;;5043748;28;20534;-86
2023/09/16 07:12:02;;;;;;;12.53;4.63;;;18.10;99.90;;;;;;5039885;28;20468;-83
2023/09/16 07:14:31;;;;;;;5.90;3.73;;;18.10;99.90;;;;;;5027634;28;20475;-83
2023/09/16 07:17:01;;;;;;;5.50;4.00;;;18.20;99.90;;;;;;5037862;28;20488;-83
2023/09/16 07:19:33;;;;;;;4.17;3.77;;;18.20;99.90;;;;;;5045810;28;20922;-82
2023/09/16 07:22:05;;;;;;;4.90;3.77;;;18.30;99.90;;;;;;5034386;28;20460;-86
2023/09/16 07:24:33;;;;;;;4.00;3.57;;;18.30;99.90;;;;;;5048954;28;20468;-84
2023/09/16 07:27:04;;;;;;;4.83;3.77;;;18.50;99.90;;;;;;5029014;28;20515;-83
2023/09/16 07:29:50;;;;;;;4.70;3.90;;;18.50;99.90;;;;;;5036925;28;20491;-83
2023/09/16 07:32:23;;;;;;;7.40;3.93;;;18.60;99.90;;;;;;5040414;28;20468;-86
2023/09/16 07:34:56;;;;;;;5.50;4.30;;;18.60;99.90;;;;;;5041198;28;20483;-82
2023/09/16 07:37:25;;;;;;;6.70;4.50;;;18.60;99.90;;;;;;5040601;28;20502;-87
2023/09/16 07:39:55;;;;;;;6.80;4.50;;;18.70;99.90;;;;;;5047083;28;20559;-86
2023/09/16 07:42:25;;;;;;;5.20;4.40;;;18.70;99.90;;;;;;5023900;28;20498;-86
2023/09/16 07:45:03;;;;;;;5.57;3.93;;;18.80;99.90;;;;;;5036812;28;20515;-86
2023/09/16 07:47:32;;;;;;;5.00;3.90;;;18.90;99.90;;;;;;5043661;28;20526;-83
2023/09/16 07:50:13;;;;;;;3.77;3.47;;;19.00;99.90;;;;;;5043538;28;20540;-85
2023/09/16 07:52:44;;;;;;;5.73;4.67;;;19.10;99.90;;;;;;5028361;28;20462;-83
2023/09/16 07:55:12;;;;;;;5.00;4.50;;;19.10;99.90;;;;;;5042495;28;20480;-83
2023/09/16 07:57:41;;;;;;;4.37;3.97;;;19.10;99.90;;;;;;5038689;28;20479;-86
2023/09/16 08:00:14;;;;;;;4.67;3.90;;;19.10;99.90;;;;;;5037821;28;20563;-82
2023/09/16 08:02:45;;;;;;;6.30;5.20;;;19.20;99.90;;;;;;5036200;28;20460;-81
2023/09/16 08:05:12;;;;;;;4.50;4.00;;;19.30;99.90;;;;;;5036865;28;20482;-83
2023/09/16 08:07:39;;;;;;;4.27;3.90;;;19.40;99.90;;;;;;5042577;28;20503;-86
2023/09/16 08:10:08;;;;;;;6.50;4.20;;;19.50;99.90;;;;;;5038696;28;20476;-86
2023/09/16 08:12:40;;;;;;;4.60;3.90;;;19.60;99.90;;;;;;5035030;28;20534;-86
2023/09/16 08:15:23;;;;;;;5.50;4.77;;;19.70;99.90;;;;;;5037045;28;20545;-85
2023/09/16 08:18:16;;;;;;;5.67;5.10;;;19.70;99.90;;;;;;5034014;28;20464;-85
2023/09/16 08:20:44;;;;;;;5.53;4.93;;;19.80;99.90;;;;;;5039362;28;20491;-86
2023/09/16 08:23:13;;;;;;;6.00;4.53;;;19.90;99.90;;;;;;5036209;28;20465;-82
2023/09/16 08:25:47;;;;;;;5.20;3.97;;;19.90;99.90;;;;;;5036206;28;20533;-83
2023/09/16 08:28:14;;;;;;;5.17;4.60;;;20.00;99.90;;;;;;5038691;28;20466;-84
2023/09/16 08:30:41;;;;;;;5.00;4.60;;;20.10;99.90;;;;;;5025207;28;20522;-83
2023/09/16 08:33:12;;;;;;;6.13;4.30;;;20.00;99.90;;;;;;5024318;28;20488;-83
2023/09/16 08:35:40;;;;;;;6.57;5.93;;;20.20;99.90;;;;;;5033578;28;20472;-83
2023/09/16 08:38:08;;;;;;;5.40;4.33;;;20.30;99.90;;;;;;5039519;28;20496;-85
2023/09/16 08:40:36;;;;;;;8.67;5.83;;;20.40;99.90;;;;;;5035820;28;20598;-87
2023/09/16 08:43:12;;;;;;;3.77;3.47;;;20.50;99.90;;;;;;5017418;28;20498;-87
2023/09/16 08:45:44;;;;;;;5.00;4.00;;;20.60;99.90;;;;;;5034684;28;20479;-84
2023/09/16 08:48:17;;;;;;;6.80;3.90;;;20.60;99.90;;;;;;5032994;28;20468;-83
2023/09/16 08:51:01;;;;;;;;;;;;;;;;;;;;;
2023/09/16 08:53:36;;;;;;;4.87;3.73;;;20.80;99.90;;;;;;5036283;28;20468;-83
2023/09/16 08:56:05;;;;;;;5.57;4.33;;;20.80;99.90;;;;;;5035715;28;20902;-83
2023/09/16 08:58:36;;;;;;;4.33;4.03;;;20.80;99.90;;;;;;5037125;28;20547;-82
2023/09/16 09:01:04;;;;;;;5.40;4.17;;;20.90;99.90;;;;;;5035818;28;20466;-83
2023/09/16 09:03:37;;;;;;;9.93;4.47;;;20.90;99.90;;;;;;5037667;28;20522;-87
2023/09/16 09:06:10;;;;;;;4.90;4.30;;;20.90;99.90;;;;;;5036714;28;20468;-83
2023/09/16 09:08:40;;;;;;;4.77;3.97;;;20.90;99.90;;;;;;5038287;28;20468;-85
2023/09/16 09:11:14;;;;;;;3.77;3.40;;;20.90;99.90;;;;;;5037851;28;20484;-85
2023/09/16 09:13:43;;;;;;;4.20;3.90;;;21.00;99.90;;;;;;5036872;28;20478;-84
2023/09/16 09:16:12;;;;;;;4.73;4.07;;;21.00;99.90;;;;;;5018861;28;21279;-86
2023/09/16 09:21:44;;;;;;;5.10;4.10;;;21.10;99.90;;;;;;5037120;28;20456;-86
2023/09/16 09:24:15;;;;;;;5.00;4.03;;;21.20;99.90;;;;;;5027379;28;20470;-83
2023/09/16 09:26:42;;;;;;;4.60;3.90;;;21.20;99.90;;;;;;5037415;28;20552;-86
2023/09/16 09:29:12;;;;;;;4.73;3.80;;;21.30;99.90;;;;;;5038138;28;20480;-86
2023/09/16 09:31:42;;;;;;;4.30;3.57;;;21.30;99.90;;;;;;5036830;28;20490;-85
2023/09/16 09:34:17;;;;;;;5.73;4.10;;;21.40;99.90;;;;;;5037216;28;20464;-86
2023/09/16 09:36:47;;;;;;;4.13;3.73;;;21.50;99.90;;;;;;5036015;28;20555;-85
2023/09/16 09:39:14;;;;;;;4.33;3.73;;;21.60;99.90;;;;;;5035908;28;20526;-83
2023/09/16 09:41:46;;;;;;;5.00;4.50;;;21.70;99.90;;;;;;5035659;28;20962;-82
2023/09/16 09:44:20;;;;;;;4.17;3.87;;;21.80;99.90;;;;;;5036049;28;20548;-86
2023/09/16 09:46:49;;;;;;;4.87;4.47;;;21.90;99.90;;;;;;5037476;28;20476;-84
2023/09/16 09:49:21;;;;;;;4.90;4.40;;;22.00;99.90;;;;;;5028377;28;20484;-86
2023/09/16 09:51:49;;;;;;;6.70;6.10;;;22.00;99.90;;;;;;5038395;28;20464;-86
2023/09/16 09:54:18;;;;;;;10.83;8.07;;;22.00;99.90;;;;;;5038632;28;20494;-86
2023/09/16 09:56:46;;;;;;;7.50;6.70;;;22.00;99.90;;;;;;5037897;28;20540;-87
2023/09/16 09:59:15;;;;;;;6.80;4.63;;;22.00;99.90;;;;;;5026867;28;20534;-86
2023/09/16 10:01:44;;;;;;;3.90;3.50;;;22.10;99.90;;;;;;5035576;28;20476;-85
2023/09/16 10:04:14;;;;;;;6.93;4.90;;;22.10;99.90;;;;;;5035591;28;20502;-85
2023/09/16 10:06:43;;;;;;;5.10;3.50;;;22.10;99.90;;;;;;5036529;28;20997;-84
2023/09/16 10:09:17;;;;;;;4.63;3.83;;;22.20;99.90;;;;;;5026758;28;20468;-85
2023/09/16 10:11:45;;;;;;;5.40;4.90;;;22.30;99.90;;;;;;5028257;28;20529;-83
2023/09/16 10:14:12;;;;;;;6.13;4.13;;;22.30;99.90;;;;;;5034595;28;20474;-83
2023/09/16 10:16:42;;;;;;;3.57;3.20;;;22.40;99.90;;;;;;5032422;28;20464;-86
2023/09/16 10:19:11;;;;;;;5.50;4.13;;;22.40;99.90;;;;;;5026023;28;20464;-86
2023/09/16 10:21:52;;;;;;;4.50;4.10;;;22.50;99.90;;;;;;5037284;28;20481;-85
2023/09/16 10:24:19;;;;;;;5.13;4.73;;;22.50;99.90;;;;;;5008290;28;20518;-86
2023/09/16 10:26:48;;;;;;;5.17;4.60;;;22.60;99.90;;;;;;5036139;28;20465;-84
2023/09/16 10:29:36;;;;;;;5.47;4.43;;;22.60;99.90;;;;;;5014917;28;20563;-84
2023/09/16 10:32:06;;;;;;;5.27;4.40;;;22.60;99.90;;;;;;5024385;28;20897;-84
2023/09/16 10:34:46;;;;;;;4.33;3.93;;;22.70;99.90;;;;;;5035353;28;20479;-83
2023/09/16 10:37:24;;;;;;;4.97;4.20;;;22.70;99.90;;;;;;5033997;28;20480;-83
2023/09/16 10:43:20;;;;;;;4.20;3.90;;;22.90;99.90;;;;;;4997522;28;20475;-83
2023/09/16 10:45:49;;;;;;;5.07;4.37;;;23.00;99.90;;;;;;5034149;28;20529;-84
2023/09/16 10:48:16;;;;;;;4.17;3.73;;;23.10;99.90;;;;;;5026194;28;20471;-84
2023/09/16 10:50:48;;;;;;;4.80;4.40;;;23.10;99.90;;;;;;5035226;28;20475;-84
2023/09/16 10:53:23;;;;;;;4.43;4.00;;;23.10;99.90;;;;;;5026779;28;20468;-86
2023/09/16 10:55:57;;;;;;;6.23;4.43;;;23.20;99.90;;;;;;5075613;22;20480;-86
2023/09/16 10:59:07;;;;;;;4.03;3.70;;;23.30;99.90;;;;;;5065808;28;20465;-84
2023/09/16 11:01:56;;;;;;;4.90;4.40;;;23.30;99.90;;;;;;5070672;28;20616;-85
2023/09/16 11:04:24;;;;;;;4.03;3.73;;;23.30;99.90;;;;;;5068074;28;20470;-86
2023/09/16 11:06:51;;;;;;;4.50;4.00;;;23.40;99.90;;;;;;5081683;28;20549;-82
2023/09/16 11:09:35;;;;;;;3.90;3.60;;;23.40;99.90;;;;;;5076559;28;20470;-86
2023/09/16 11:12:06;;;;;;;4.60;3.80;;;23.40;99.90;;;;;;5066582;28;20490;-83
2023/09/16 11:14:36;;;;;;;4.87;4.47;;;23.50;99.90;;;;;;5074029;28;20462;-83
2023/09/16 11:17:14;;;;;;;5.27;4.03;;;23.60;99.90;;;;;;5075867;28;20550;-84
2023/09/16 11:19:46;;;;;;;5.17;4.77;;;23.60;99.90;;;;;;5077458;28;20462;-86
2023/09/16 11:22:18;;;;;;;4.57;4.17;;;23.60;99.90;;;;;;5058035;28;20473;-85
2023/09/16 11:24:54;;;;;;;4.37;3.90;;;23.70;99.90;;;;;;5067093;28;20470;-86
2023/09/16 11:27:24;;;;;;;4.53;4.13;;;23.80;99.90;;;;;;5062988;28;20539;-86
2023/09/16 11:29:57;;;;;;;4.87;4.47;;;23.80;99.90;;;;;;5048907;28;20479;-83
2023/09/16 11:32:37;;;;;;;5.77;5.27;;;23.90;99.90;;;;;;5072690;28;20466;-84
2023/09/16 11:35:05;;;;;;;5.00;4.50;;;23.90;99.90;;;;;;5073353;28;20549;-83
2023/09/16 11:37:32;;;;;;;4.67;4.37;;;23.90;99.90;;;;;;5073406;28;20956;-84
2023/09/16 11:40:07;;;;;;;5.23;4.63;;;23.90;99.90;;;;;;5053171;28;20529;-84
2023/09/16 11:42:34;;;;;;;4.80;4.40;;;23.90;99.90;;;;;;5073002;28;20532;-84
2023/09/16 11:45:13;;;;;;;;;;;;;;;;;;;;;
2023/09/16 11:47:44;;;;;;;4.80;4.30;;;24.00;99.90;;;;;;5073672;28;20466;-84
2023/09/16 11:50:21;;;;;;;5.43;4.57;;;24.00;99.90;;;;;;5072321;28;20472;-83
2023/09/16 11:52:48;;;;;;;4.87;4.50;;;24.10;99.90;;;;;;5065745;28;20484;-84
2023/09/16 11:55:17;;;;;;;3.87;3.43;;;24.10;99.90;;;;;;5062499;28;20470;-84
2023/09/16 11:57:46;;;;;;;8.30;6.10;;;24.10;99.90;;;;;;5071259;28;20465;-84
2023/09/16 12:00:17;;;;;;;4.67;4.30;;;24.10;99.90;;;;;;5074320;28;20478;-86
2023/09/16 12:02:59;;;;;;;7.70;4.60;;;24.20;99.90;;;;;;5075034;28;20462;-87
2023/09/16 12:05:28;;;;;;;5.87;3.90;;;24.20;99.90;;;;;;5077959;28;20477;-85
2023/09/16 12:07:59;;;;;;;5.20;4.70;;;24.20;99.90;;;;;;5077475;28;20574;-86
2023/09/16 12:10:28;;;;;;;4.20;3.80;;;24.20;99.90;;;;;;5075111;28;20466;-84
2023/09/16 12:13:01;;;;;;;6.73;5.43;;;24.30;99.90;;;;;;5074330;28;20890;-86
2023/09/16 12:15:31;;;;;;;4.90;4.23;;;24.30;99.90;;;;;;5076119;28;20474;-86
2023/09/16 12:18:02;;;;;;;4.70;4.30;;;24.30;99.90;;;;;;5080161;28;20532;-86
2023/09/16 12:20:31;;;;;;;4.50;4.10;;;24.30;99.90;;;;;;5077873;28;20450;-84
2023/09/16 12:22:59;;;;;;;5.23;3.90;;;24.40;99.90;;;;;;5076747;28;20476;-86
2023/09/16 12:25:39;;;;;;;4.63;4.20;;;24.30;99.90;;;;;;5065523;28;20539;-86
2023/09/16 12:28:06;;;;;;;9.30;4.37;;;24.40;99.90;;;;;;5079107;28;20524;-86
2023/09/16 12:34:14;;;;;;;5.03;4.57;;;24.40;99.90;;;;;;5018820;28;20507;-85
2023/09/16 12:36:47;;;;;;;4.50;4.20;;;24.40;99.90;;;;;;5077470;28;20939;-85
2023/09/16 12:39:15;;;;;;;4.47;4.03;;;24.50;99.90;;;;;;5070621;28;20485;-86
2023/09/16 12:41:46;;;;;;;5.30;4.33;;;24.50;99.90;;;;;;5067621;28;20956;-87
2023/09/16 12:44:14;;;;;;;5.27;4.87;;;24.50;99.90;;;;;;5068152;28;20500;-86
2023/09/16 12:46:42;;;;;;;4.83;4.43;;;24.50;99.90;;;;;;5076720;28;20470;-86
2023/09/16 12:49:35;;;;;;;4.53;4.13;;;24.60;99.90;;;;;;5078825;28;20466;-86
2023/09/16 12:52:16;;;;;;;6.80;4.90;;;24.60;99.90;;;;;;5078179;28;20963;-85
2023/09/16 12:54:46;;;;;;;4.60;4.23;;;24.60;99.90;;;;;;5078268;28;20505;-86
2023/09/16 12:57:22;;;;;;;5.30;4.33;;;24.60;99.90;;;;;;5076921;28;20450;-86
2023/09/16 13:00:03;;;;;;;5.90;4.40;;;24.70;99.90;;;;;;5075598;28;20476;-84
2023/09/16 13:02:35;;;;;;;5.33;4.93;;;24.60;99.90;;;;;;5075613;28;20462;-84
2023/09/16 13:05:15;;;;;;;5.13;4.63;;;24.60;99.80;;;;;;5076745;28;20497;-85
2023/09/16 13:07:42;;;;;;;5.13;4.63;;;24.60;99.90;;;;;;5079957;28;20462;-87
2023/09/16 13:10:19;;;;;;;4.83;4.43;;;24.60;99.90;;;;;;5077733;28;20477;-87
2023/09/16 13:12:48;;;;;;;6.53;4.67;;;24.60;99.90;;;;;;5077443;28;20472;-84
2023/09/16 13:15:20;;;;;;;4.80;4.50;;;24.60;99.90;;;;;;5075655;28;20462;-86
2023/09/16 13:17:55;;;;;;;5.10;4.20;;;24.70;99.90;;;;;;5078037;28;20462;-83
2023/09/16 13:20:25;;;;;;;5.63;5.10;;;24.70;99.90;;;;;;5077590;28;20457;-86
2023/09/16 13:22:57;;;;;;;5.40;4.90;;;24.70;99.90;;;;;;5077338;28;20955;-86
2023/09/16 13:25:36;;;;;;;6.23;5.23;;;24.80;99.90;;;;;;5076718;28;20562;-84
2023/09/16 13:28:12;;;;;;;6.77;4.87;;;24.80;99.90;;;;;;5069584;28;20553;-86
2023/09/16 13:30:43;;;;;;;5.57;5.13;;;24.80;99.90;;;;;;5080107;28;20836;-86
2023/09/16 13:33:13;;;;;;;4.70;4.33;;;24.80;99.90;;;;;;5081408;28;20792;-86
2023/09/16 13:36:20;;;;;;;4.30;4.00;;;24.80;99.90;;;;;;5072111;28;20504;-87
2023/09/16 13:38:47;;;;;;;4.70;4.30;;;24.80;99.90;;;;;;5072689;28;20470;-87
2023/09/16 13:41:16;;;;;;;5.30;4.90;;;24.90;99.90;;;;;;5082056;28;20512;-87
2023/09/16 13:43:45;;;;;;;4.73;4.33;;;24.90;99.90;;;;;;5081519;28;20474;-87
2023/09/16 13:49:14;;;;;;;8.40;7.73;;;24.90;99.90;;;;;;5082395;28;20474;-86
2023/09/16 13:51:41;;;;;;;4.70;4.40;;;24.90;99.90;;;;;;5078888;28;20463;-86
2023/09/16 13:54:10;;;;;;;11.73;10.60;;;24.90;99.90;;;;;;5071658;28;20476;-86
2023/09/16 13:56:38;;;;;;;4.63;4.30;;;24.90;99.90;;;;;;5079078;28;20473;-87